Alpinopolis, Brazil
Current Conditions -  °F | °C
As of 9:00 AM on Wednesday 26 Nov 2014 (Local Time) from SBRP Reporting Station
Broken Clouds Broken Clouds  
Wind Chill: 73°   Ceiling: 2000
Heat Index: 73°   Visibility: 5mi
Dew Point: 68°   Wind: 13mph
Humidity: 83%   Direction: 350°N
Pressure: 29.85"   Gusts: NA
Location:  20.86°S, 46.4°W
Report Text: SBRP 261100Z 35011KT 8000 SCT012 BKN020 23/20 Q1011
Loading
Personal Weather Stations






























Interactive Weather Map New forecast layout! Learn more

10-Day Weather Forecast

Advertisements
Track Severe Weather on mobile